sensor_id;sensor_type;location;lat;lon;timestamp;pressure;altitude;pressure_sealevel;temperature;humidity
34586;BME280;20816;50.950;11.108;2024-03-08T00:00:11;98872.91;;;-0.70;99.22
34586;BME280;20816;50.950;11.108;2024-03-08T00:02:43;98868.59;;;-0.71;99.85
34586;BME280;20816;50.950;11.108;2024-03-08T00:05:11;98866.84;;;-0.72;100.00
34586;BME280;20816;50.950;11.108;2024-03-08T00:07:38;98863.50;;;-0.68;100.00
34586;BME280;20816;50.950;11.108;2024-03-08T00:10:07;98864.47;;;-0.65;100.00
34586;BME280;20816;50.950;11.108;2024-03-08T00:12:42;98865.16;;;-0.70;100.00
34586;BME280;20816;50.950;11.108;2024-03-08T00:15:10;98863.44;;;-0.71;100.00
34586;BME280;20816;50.950;11.108;2024-03-08T00:17:41;98855.47;;;-0.79;100.00
34586;BME280;20816;50.950;11.108;2024-03-08T00:20:08;98863.00;;;-0.87;100.00
34586;BME280;20816;50.950;11.108;2024-03-08T00:22:35;98856.75;;;-0.95;100.00
34586;BME280;20816;50.950;11.108;2024-03-08T00:25:03;98862.56;;;-1.02;100.00
34586;BME280;20816;50.950;11.108;2024-03-08T00:27:30;98856.72;;;-0.96;100.00
34586;BME280;20816;50.950;11.108;2024-03-08T00:29:57;98856.56;;;-1.01;100.00
34586;BME280;20816;50.950;11.108;2024-03-08T00:32:24;98859.34;;;-0.95;100.00
34586;BME280;20816;50.950;11.108;2024-03-08T00:34:51;98850.69;;;-0.97;100.00
34586;BME280;20816;50.950;11.108;2024-03-08T00:37:21;98848.81;;;-1.02;100.00
34586;BME280;20816;50.950;11.108;2024-03-08T00:39:51;98849.41;;;-1.11;100.00
34586;BME280;20816;50.950;11.108;2024-03-08T00:42:18;98859.59;;;-1.16;100.00
34586;BME280;20816;50.950;11.108;2024-03-08T00:44:46;98846.78;;;-1.14;100.00
34586;BME280;20816;50.950;11.108;2024-03-08T00:47:13;98846.91;;;-1.08;100.00
34586;BME280;20816;50.950;11.108;2024-03-08T00:49:41;98839.94;;;-1.12;100.00
34586;BME280;20816;50.950;11.108;2024-03-08T00:52:08;98847.63;;;-1.14;100.00
34586;BME280;20816;50.950;11.108;2024-03-08T00:54:35;98843.34;;;-1.13;100.00
34586;BME280;20816;50.950;11.108;2024-03-08T00:57:05;98844.03;;;-1.19;100.00
34586;BME280;20816;50.950;11.108;2024-03-08T00:59:33;98843.19;;;-1.19;100.00
34586;BME280;20816;50.950;11.108;2024-03-08T01:02:01;98845.53;;;-1.27;100.00
34586;BME280;20816;50.950;11.108;2024-03-08T01:04:27;98836.94;;;-1.27;100.00
34586;BME280;20816;50.950;11.108;2024-03-08T01:06:59;98832.41;;;-1.34;100.00
34586;BME280;20816;50.950;11.108;2024-03-08T01:09:26;98826.22;;;-1.41;100.00
34586;BME280;20816;50.950;11.108;2024-03-08T01:11:54;98823.50;;;-1.46;100.00
34586;BME280;20816;50.950;11.108;2024-03-08T01:14:22;98823.50;;;-1.46;100.00
34586;BME280;20816;50.950;11.108;2024-03-08T01:16:49;98813.59;;;-1.62;100.00
34586;BME280;20816;50.950;11.108;2024-03-08T01:19:17;98816.81;;;-1.69;100.00
34586;BME280;20816;50.950;11.108;2024-03-08T01:21:44;98808.88;;;-1.75;100.00
34586;BME280;20816;50.950;11.108;2024-03-08T01:24:10;98816.69;;;-1.72;100.00
34586;BME280;20816;50.950;11.108;2024-03-08T01:26:37;98815.09;;;-1.68;100.00
34586;BME280;20816;50.950;11.108;2024-03-08T01:29:05;98813.41;;;-1.68;100.00
34586;BME280;20816;50.950;11.108;2024-03-08T01:31:32;98800.91;;;-1.83;100.00
34586;BME280;20816;50.950;11.108;2024-03-08T01:33:59;98800.63;;;-1.92;100.00
34586;BME280;20816;50.950;11.108;2024-03-08T01:36:26;98796.44;;;-1.88;100.00
34586;BME280;20816;50.950;11.108;2024-03-08T01:38:52;98791.28;;;-1.88;100.00
34586;BME280;20816;50.950;11.108;2024-03-08T01:41:19;98788.72;;;-1.88;100.00
34586;BME280;20816;50.950;11.108;2024-03-08T01:43:46;98786.84;;;-1.94;100.00
34586;BME280;20816;50.950;11.108;2024-03-08T01:46:16;98786.75;;;-1.97;100.00
34586;BME280;20816;50.950;11.108;2024-03-08T01:48:43;98786.56;;;-2.03;100.00
34586;BME280;20816;50.950;11.108;2024-03-08T01:51:11;98782.19;;;-2.06;100.00
34586;BME280;20816;50.950;11.108;2024-03-08T01:53:38;98780.56;;;-2.04;100.00
34586;BME280;20816;50.950;11.108;2024-03-08T01:56:06;98787.34;;;-2.06;100.00
34586;BME280;20816;50.950;11.108;2024-03-08T01:58:33;98784.69;;;-2.09;100.00
34586;BME280;20816;50.950;11.108;2024-03-08T02:01:01;98777.03;;;-2.06;100.00
34586;BME280;20816;50.950;11.108;2024-03-08T02:22:25;98758.38;;;-2.27;100.00
34586;BME280;20816;50.950;11.108;2024-03-08T02:24:52;98760.75;;;-2.33;100.00
34586;BME280;20816;50.950;11.108;2024-03-08T02:27:26;98765.81;;;-2.36;100.00
34586;BME280;20816;50.950;11.108;2024-03-08T02:29:54;98754.44;;;-2.43;100.00
34586;BME280;20816;50.950;11.108;2024-03-08T02:32:24;98758.78;;;-2.40;100.00
34586;BME280;20816;50.950;11.108;2024-03-08T02:34:51;98755.31;;;-2.42;100.00
34586;BME280;20816;50.950;11.108;2024-03-08T02:37:22;98755.84;;;-2.52;100.00
34586;BME280;20816;50.950;11.108;2024-03-08T02:39:49;98754.94;;;-2.53;100.00
34586;BME280;20816;50.950;11.108;2024-03-08T02:42:15;98746.50;;;-2.49;100.00
34586;BME280;20816;50.950;11.108;2024-03-08T02:44:43;98736.66;;;-2.35;100.00
34586;BME280;20816;50.950;11.108;2024-03-08T02:47:10;98731.41;;;-2.38;100.00
34586;BME280;20816;50.950;11.108;2024-03-08T02:49:37;98734.59;;;-2.45;100.00
34586;BME280;20816;50.950;11.108;2024-03-08T02:52:04;98733.88;;;-2.41;100.00
34586;BME280;20816;50.950;11.108;2024-03-08T02:54:31;98728.59;;;-2.46;100.00
34586;BME280;20816;50.950;11.108;2024-03-08T02:56:57;98729.16;;;-2.55;100.00
34586;BME280;20816;50.950;11.108;2024-03-08T02:59:24;98727.44;;;-2.56;100.00
34586;BME280;20816;50.950;11.108;2024-03-08T03:01:51;98723.75;;;-2.64;100.00
34586;BME280;20816;50.950;11.108;2024-03-08T03:04:17;98724.81;;;-2.57;100.00
34586;BME280;20816;50.950;11.108;2024-03-08T03:06:44;98724.66;;;-2.62;100.00
34586;BME280;20816;50.950;11.108;2024-03-08T03:09:12;98720.16;;;-2.69;100.00
34586;BME280;20816;50.950;11.108;2024-03-08T03:11:44;98724.34;;;-2.71;100.00
34586;BME280;20816;50.950;11.108;2024-03-08T03:14:11;98714.03;;;-2.72;100.00
34586;BME280;20816;50.950;11.108;2024-03-08T03:16:37;98724.19;;;-2.77;100.00
34586;BME280;20816;50.950;11.108;2024-03-08T03:19:04;98718.63;;;-2.89;100.00
34586;BME280;20816;50.950;11.108;2024-03-08T03:21:32;98715.84;;;-2.95;100.00
34586;BME280;20816;50.950;11.108;2024-03-08T03:23:58;98714.94;;;-2.97;100.00
34586;BME280;20816;50.950;11.108;2024-03-08T03:26:25;98715.00;;;-2.94;100.00
34586;BME280;20816;50.950;11.108;2024-03-08T03:28:52;98715.13;;;-2.91;100.00
34586;BME280;20816;50.950;11.108;2024-03-08T03:31:20;98718.41;;;-2.95;100.00
34586;BME280;20816;50.950;11.108;2024-03-08T03:33:50;98719.44;;;-2.90;100.00
34586;BME280;20816;50.950;11.108;2024-03-08T03:36:19;98718.78;;;-2.85;100.00
34586;BME280;20816;50.950;11.108;2024-03-08T03:38:46;98716.06;;;-2.89;100.00
34586;BME280;20816;50.950;11.108;2024-03-08T03:41:13;98715.09;;;-2.93;100.00
34586;BME280;20816;50.950;11.108;2024-03-08T03:43:41;98710.81;;;-2.92;100.00
34586;BME280;20816;50.950;11.108;2024-03-08T03:46:07;98721.28;;;-2.86;100.00
34586;BME280;20816;50.950;11.108;2024-03-08T03:48:34;98716.84;;;-2.92;100.00
34586;BME280;20816;50.950;11.108;2024-03-08T03:51:01;98708.16;;;-2.94;100.00
34586;BME280;20816;50.950;11.108;2024-03-08T03:53:28;98708.66;;;-3.05;100.00
34586;BME280;20816;50.950;11.108;2024-03-08T03:55:54;98704.06;;;-3.14;100.00
34586;BME280;20816;50.950;11.108;2024-03-08T03:58:21;98708.25;;;-3.18;100.00
34586;BME280;20816;50.950;11.108;2024-03-08T04:00:49;98706.38;;;-3.22;100.00
34586;BME280;20816;50.950;11.108;2024-03-08T04:03:16;98705.47;;;-3.24;100.00
34586;BME280;20816;50.950;11.108;2024-03-08T04:05:43;98705.53;;;-3.22;100.00
34586;BME280;20816;50.950;11.108;2024-03-08T04:08:10;98702.91;;;-3.24;100.00
34586;BME280;20816;50.950;11.108;2024-03-08T04:10:36;98701.25;;;-3.22;100.00
34586;BME280;20816;50.950;11.108;2024-03-08T04:13:03;98689.44;;;-3.17;100.00
34586;BME280;20816;50.950;11.108;2024-03-08T04:15:30;98690.56;;;-3.08;100.00
34586;BME280;20816;50.950;11.108;2024-03-08T04:17:57;98689.75;;;-3.07;100.00
34586;BME280;20816;50.950;11.108;2024-03-08T04:20:24;98695.53;;;-3.13;100.00
34586;BME280;20816;50.950;11.108;2024-03-08T04:22:50;98695.59;;;-3.12;100.00
34586;BME280;20816;50.950;11.108;2024-03-08T04:25:17;98695.50;;;-3.15;100.00
34586;BME280;20816;50.950;11.108;2024-03-08T04:27:44;98694.66;;;-3.14;100.00
34586;BME280;20816;50.950;11.108;2024-03-08T04:30:11;98697.19;;;-3.15;100.00
34586;BME280;20816;50.950;11.108;2024-03-08T04:32:38;98692.75;;;-3.19;100.00
34586;BME280;20816;50.950;11.108;2024-03-08T04:35:05;98690.19;;;-3.19;100.00
34586;BME280;20816;50.950;11.108;2024-03-08T04:37:32;98684.97;;;-3.22;100.00
34586;BME280;20816;50.950;11.108;2024-03-08T04:39:59;98684.91;;;-3.24;100.00
34586;BME280;20816;50.950;11.108;2024-03-08T04:42:27;98683.31;;;-3.20;100.00
34586;BME280;20816;50.950;11.108;2024-03-08T04:44:56;98679.16;;;-3.17;100.00
34586;BME280;20816;50.950;11.108;2024-03-08T04:47:23;98665.34;;;-3.19;100.00
34586;BME280;20816;50.950;11.108;2024-03-08T04:49:50;98670.91;;;-3.06;100.00
34586;BME280;20816;50.950;11.108;2024-03-08T04:52:17;98671.91;;;-2.76;100.00
34586;BME280;20816;50.950;11.108;2024-03-08T04:54:43;98670.47;;;-2.39;100.00
34586;BME280;20816;50.950;11.108;2024-03-08T04:57:11;98663.84;;;-2.03;100.00
34586;BME280;20816;50.950;11.108;2024-03-08T04:59:38;98668.97;;;-1.73;100.00
34586;BME280;20816;50.950;11.108;2024-03-08T05:02:04;98661.22;;;-1.41;100.00
34586;BME280;20816;50.950;11.108;2024-03-08T05:04:31;98663.41;;;-1.23;100.00
34586;BME280;20816;50.950;11.108;2024-03-08T05:06:58;98660.09;;;-1.19;100.00
34586;BME280;20816;50.950;11.108;2024-03-08T05:09:27;98659.38;;;-1.14;100.00
34586;BME280;20816;50.950;11.108;2024-03-08T05:11:58;98658.66;;;-1.08;100.00
34586;BME280;20816;50.950;11.108;2024-03-08T05:14:25;98656.16;;;-1.05;100.00
34586;BME280;20816;50.950;11.108;2024-03-08T05:16:52;98654.56;;;-1.00;100.00
34586;BME280;20816;50.950;11.108;2024-03-08T05:19:20;98651.28;;;-0.93;100.00
34586;BME280;20816;50.950;11.108;2024-03-08T05:21:47;98654.19;;;-0.80;100.00
34586;BME280;20816;50.950;11.108;2024-03-08T05:24:14;98655.25;;;-0.72;100.00
34586;BME280;20816;50.950;11.108;2024-03-08T05:26:43;98659.53;;;-0.73;100.00
34586;BME280;20816;50.950;11.108;2024-03-08T05:29:10;98656.44;;;-0.93;100.00
34586;BME280;20816;50.950;11.108;2024-03-08T05:31:47;98667.59;;;-1.28;100.00
34586;BME280;20816;50.950;11.108;2024-03-08T05:34:15;98662.31;;;-1.64;100.00
34586;BME280;20816;50.950;11.108;2024-03-08T05:36:42;98663.31;;;-1.91;100.00
34586;BME280;20816;50.950;11.108;2024-03-08T05:39:12;98665.59;;;-2.02;100.00
34586;BME280;20816;50.950;11.108;2024-03-08T05:41:39;98664.56;;;-2.07;100.00
34586;BME280;20816;50.950;11.108;2024-03-08T05:44:07;98674.75;;;-2.11;100.00
34586;BME280;20816;50.950;11.108;2024-03-08T05:46:34;98667.72;;;-2.17;100.00
34586;BME280;20816;50.950;11.108;2024-03-08T05:49:03;98662.28;;;-2.26;100.00
34586;BME280;20816;50.950;11.108;2024-03-08T05:51:32;98667.53;;;-2.23;100.00
34586;BME280;20816;50.950;11.108;2024-03-08T05:54:04;98671.38;;;-2.37;100.00
34586;BME280;20816;50.950;11.108;2024-03-08T05:56:40;98662.75;;;-2.39;100.00
34586;BME280;20816;50.950;11.108;2024-03-08T05:59:11;98659.19;;;-2.44;100.00
34586;BME280;20816;50.950;11.108;2024-03-08T06:01:39;98661.66;;;-2.47;100.00
34586;BME280;20816;50.950;11.108;2024-03-08T06:04:08;98671.81;;;-2.52;100.00
34586;BME280;20816;50.950;11.108;2024-03-08T06:06:37;98661.56;;;-2.50;100.00
34586;BME280;20816;50.950;11.108;2024-03-08T06:09:07;98665.69;;;-2.56;100.00
34586;BME280;20816;50.950;11.108;2024-03-08T06:11:44;98670.94;;;-2.52;100.00
34586;BME280;20816;50.950;11.108;2024-03-08T06:14:10;98672.69;;;-2.51;100.00
34586;BME280;20816;50.950;11.108;2024-03-08T06:16:37;98679.28;;;-2.60;100.00
34586;BME280;20816;50.950;11.108;2024-03-08T06:19:05;98674.22;;;-2.57;100.00
34586;BME280;20816;50.950;11.108;2024-03-08T06:21:32;98673.31;;;-2.59;100.00
34586;BME280;20816;50.950;11.108;2024-03-08T06:23:59;98672.59;;;-2.53;100.00
34586;BME280;20816;50.950;11.108;2024-03-08T06:26:26;98672.06;;;-2.44;100.00
34586;BME280;20816;50.950;11.108;2024-03-08T06:28:57;98672.97;;;-2.42;100.00
34586;BME280;20816;50.950;11.108;2024-03-08T06:31:24;98668.09;;;-2.33;100.00
34586;BME280;20816;50.950;11.108;2024-03-08T06:33:51;98663.13;;;-2.27;100.00
34586;BME280;20816;50.950;11.108;2024-03-08T06:36:18;98666.88;;;-2.16;100.00
34586;BME280;20816;50.950;11.108;2024-03-08T06:38:51;98659.38;;;-2.08;100.00
34586;BME280;20816;50.950;11.108;2024-03-08T06:41:18;98658.78;;;-2.00;100.00
34586;BME280;20816;50.950;11.108;2024-03-08T06:43:45;98659.00;;;-1.92;100.00
34586;BME280;20816;50.950;11.108;2024-03-08T06:46:14;98661.59;;;-1.90;100.00
34586;BME280;20816;50.950;11.108;2024-03-08T06:48:41;98664.59;;;-1.75;100.00
34586;BME280;20816;50.950;11.108;2024-03-08T06:51:08;98664.22;;;-1.57;100.00
34586;BME280;20816;50.950;11.108;2024-03-08T06:53:35;98657.91;;;-1.37;100.00
34586;BME280;20816;50.950;11.108;2024-03-08T06:56:02;98659.06;;;-1.26;100.00
34586;BME280;20816;50.950;11.108;2024-03-08T06:58:29;98647.38;;;-1.13;100.00
34586;BME280;20816;50.950;11.108;2024-03-08T07:00:55;98648.75;;;-0.91;100.00
34586;BME280;20816;50.950;11.108;2024-03-08T07:03:24;98636.03;;;-0.83;100.00
34586;BME280;20816;50.950;11.108;2024-03-08T07:05:52;98639.88;;;-0.66;100.00
34586;BME280;20816;50.950;11.108;2024-03-08T07:08:19;98641.09;;;-0.50;100.00
34586;BME280;20816;50.950;11.108;2024-03-08T07:10:48;98636.41;;;-0.29;100.00
34586;BME280;20816;50.950;11.108;2024-03-08T07:13:16;98640.38;;;-0.06;100.00
34586;BME280;20816;50.950;11.108;2024-03-08T07:15:44;98638.09;;;0.10;100.00
34586;BME280;20816;50.950;11.108;2024-03-08T07:18:12;98629.03;;;0.32;100.00
34586;BME280;20816;50.950;11.108;2024-03-08T07:20:42;98632.88;;;0.52;100.00
34586;BME280;20816;50.950;11.108;2024-03-08T07:23:10;98626.53;;;0.83;100.00
34586;BME280;20816;50.950;11.108;2024-03-08T07:25:37;98633.13;;;1.17;100.00
34586;BME280;20816;50.950;11.108;2024-03-08T07:28:05;98632.06;;;1.62;100.00
34586;BME280;20816;50.950;11.108;2024-03-08T07:30:37;98624.69;;;1.89;97.17
34586;BME280;20816;50.950;11.108;2024-03-08T07:33:10;98615.66;;;2.30;97.09
34586;BME280;20816;50.950;11.108;2024-03-08T07:35:41;98612.56;;;2.63;95.00
34586;BME280;20816;50.950;11.108;2024-03-08T07:38:10;98615.25;;;2.75;93.00
34586;BME280;20816;50.950;11.108;2024-03-08T07:40:39;98612.06;;;3.08;93.40
34586;BME280;20816;50.950;11.108;2024-03-08T07:43:11;98609.75;;;3.43;91.90
34586;BME280;20816;50.950;11.108;2024-03-08T07:45:38;98612.25;;;3.28;90.91
34586;BME280;20816;50.950;11.108;2024-03-08T07:48:05;98600.19;;;3.34;91.35
34586;BME280;20816;50.950;11.108;2024-03-08T07:50:37;98601.16;;;3.56;89.37
34586;BME280;20816;50.950;11.108;2024-03-08T07:53:06;98594.44;;;3.93;90.03
34586;BME280;20816;50.950;11.108;2024-03-08T07:55:34;98592.00;;;4.32;88.80
34586;BME280;20816;50.950;11.108;2024-03-08T07:58:02;98586.00;;;4.82;87.63
34586;BME280;20816;50.950;11.108;2024-03-08T08:00:32;98584.25;;;4.84;83.97
34586;BME280;20816;50.950;11.108;2024-03-08T08:02:58;98589.47;;;4.68;82.66
34586;BME280;20816;50.950;11.108;2024-03-08T08:05:25;98580.81;;;5.06;82.57
34586;BME280;20816;50.950;11.108;2024-03-08T08:07:53;98577.28;;;5.56;81.43
34586;BME280;20816;50.950;11.108;2024-03-08T08:10:20;98573.69;;;5.97;78.31
34586;BME280;20816;50.950;11.108;2024-03-08T08:12:52;98570.03;;;6.37;78.74
34586;BME280;20816;50.950;11.108;2024-03-08T08:15:19;98573.38;;;6.58;74.61
34586;BME280;20816;50.950;11.108;2024-03-08T08:17:47;98575.13;;;6.56;74.61
34586;BME280;20816;50.950;11.108;2024-03-08T08:20:16;98573.56;;;6.24;73.65
34586;BME280;20816;50.950;11.108;2024-03-08T08:22:45;98563.13;;;6.27;74.67
34586;BME280;20816;50.950;11.108;2024-03-08T08:25:12;98572.78;;;6.08;75.71
34586;BME280;20816;50.950;11.108;2024-03-08T08:27:40;98564.19;;;5.79;75.21
34586;BME280;20816;50.950;11.108;2024-03-08T08:30:07;98566.72;;;5.89;75.41
34586;BME280;20816;50.950;11.108;2024-03-08T08:32:35;98564.16;;;5.76;77.05
34586;BME280;20816;50.950;11.108;2024-03-08T08:35:13;98566.69;;;6.08;77.31
34586;BME280;20816;50.950;11.108;2024-03-08T08:37:40;98565.00;;;5.88;76.90
34586;BME280;20816;50.950;11.108;2024-03-08T08:40:07;98566.81;;;5.71;77.19
34586;BME280;20816;50.950;11.108;2024-03-08T08:42:42;98558.88;;;6.00;76.82
34586;BME280;20816;50.950;11.108;2024-03-08T08:45:09;98551.75;;;6.37;76.48
34586;BME280;20816;50.950;11.108;2024-03-08T08:47:46;98550.91;;;6.35;76.54
34586;BME280;20816;50.950;11.108;2024-03-08T08:50:13;98553.69;;;6.03;76.55
34586;BME280;20816;50.950;11.108;2024-03-08T08:52:40;98543.13;;;6.18;76.90
34586;BME280;20816;50.950;11.108;2024-03-08T08:55:10;98546.41;;;6.56;74.72
34586;BME280;20816;50.950;11.108;2024-03-08T08:57:41;98538.41;;;6.80;74.49
34586;BME280;20816;50.950;11.108;2024-03-08T09:00:08;98534.47;;;7.30;72.74
34586;BME280;20816;50.950;11.108;2024-03-08T09:02:37;98537.06;;;7.33;73.57
34586;BME280;20816;50.950;11.108;2024-03-08T09:05:04;98532.28;;;6.84;73.22
34586;BME280;20816;50.950;11.108;2024-03-08T09:07:31;98534.91;;;6.81;70.41
34586;BME280;20816;50.950;11.108;2024-03-08T09:09:59;98532.94;;;7.08;68.77
34586;BME280;20816;50.950;11.108;2024-03-08T09:12:42;98523.88;;;7.45;68.93
34586;BME280;20816;50.950;11.108;2024-03-08T09:15:09;98521.22;;;7.47;67.45
34586;BME280;20816;50.950;11.108;2024-03-08T09:17:38;98524.59;;;7.56;67.71
34586;BME280;20816;50.950;11.108;2024-03-08T09:20:09;98521.50;;;7.98;66.53
34586;BME280;20816;50.950;11.108;2024-03-08T09:22:37;98518.72;;;8.10;65.65
34586;BME280;20816;50.950;11.108;2024-03-08T09:25:04;98506.72;;;8.58;64.99
34586;BME280;20816;50.950;11.108;2024-03-08T09:27:31;98500.03;;;8.39;64.19
34586;BME280;20816;50.950;11.108;2024-03-08T09:29:58;98500.06;;;8.34;64.16
34586;BME280;20816;50.950;11.108;2024-03-08T09:32:24;98496.00;;;8.12;63.96
34586;BME280;20816;50.950;11.108;2024-03-08T09:34:52;98485.72;;;8.00;68.11
34586;BME280;20816;50.950;11.108;2024-03-08T09:37:18;98480.34;;;8.09;67.89
34586;BME280;20816;50.950;11.108;2024-03-08T09:39:45;98483.13;;;7.98;68.62
34586;BME280;20816;50.950;11.108;2024-03-08T09:42:12;98477.66;;;8.13;69.41
34586;BME280;20816;50.950;11.108;2024-03-08T09:44:47;98472.88;;;7.80;70.40
34586;BME280;20816;50.950;11.108;2024-03-08T09:47:14;98467.56;;;7.87;69.87
34586;BME280;20816;50.950;11.108;2024-03-08T09:49:41;98467.31;;;8.66;68.06
34586;BME280;20816;50.950;11.108;2024-03-08T09:52:10;98453.44;;;8.59;63.70
34586;BME280;20816;50.950;11.108;2024-03-08T09:54:39;98448.47;;;8.42;64.98
34586;BME280;20816;50.950;11.108;2024-03-08T09:57:06;98454.25;;;8.64;66.45
34586;BME280;20816;50.950;11.108;2024-03-08T09:59:35;98457.25;;;8.40;64.24
34586;BME280;20816;50.950;11.108;2024-03-08T10:02:05;98452.13;;;8.31;63.84
34586;BME280;20816;50.950;11.108;2024-03-08T10:04:32;98449.44;;;8.34;63.38
34586;BME280;20816;50.950;11.108;2024-03-08T10:07:00;98440.16;;;8.70;65.88
34586;BME280;20816;50.950;11.108;2024-03-08T10:09:28;98440.41;;;9.06;62.63
34586;BME280;20816;50.950;11.108;2024-03-08T10:11:57;98433.06;;;8.77;63.02
34586;BME280;20816;50.950;11.108;2024-03-08T10:14:25;98429.69;;;8.68;63.06
34586;BME280;20816;50.950;11.108;2024-03-08T10:16:54;98429.69;;;8.68;62.55
34586;BME280;20816;50.950;11.108;2024-03-08T10:19:27;98422.53;;;8.24;62.92
34586;BME280;20816;50.950;11.108;2024-03-08T10:21:56;98424.84;;;8.47;63.18
34586;BME280;20816;50.950;11.108;2024-03-08T10:24:25;98419.19;;;8.72;62.78
34586;BME280;20816;50.950;11.108;2024-03-08T10:26:53;98419.88;;;9.27;62.74
34586;BME280;20816;50.950;11.108;2024-03-08T10:29:20;98413.38;;;9.02;60.97
34586;BME280;20816;50.950;11.108;2024-03-08T10:31:47;98423.06;;;8.49;62.14
34586;BME280;20816;50.950;11.108;2024-03-08T10:34:14;98408.47;;;8.84;62.44
34586;BME280;20816;50.950;11.108;2024-03-08T10:36:41;98411.59;;;9.06;61.90
34586;BME280;20816;50.950;11.108;2024-03-08T10:39:17;98406.97;;;9.17;61.64
34586;BME280;20816;50.950;11.108;2024-03-08T10:41:58;98413.06;;;9.20;61.43
34586;BME280;20816;50.950;11.108;2024-03-08T10:47:02;98405.38;;;9.10;61.93
34586;BME280;20816;50.950;11.108;2024-03-08T10:49:39;98398.09;;;9.24;61.29
34586;BME280;20816;50.950;11.108;2024-03-08T10:52:11;98397.88;;;9.76;61.06
34586;BME280;20816;50.950;11.108;2024-03-08T10:54:39;98394.31;;;9.80;60.48
34586;BME280;20816;50.950;11.108;2024-03-08T10:57:12;98390.72;;;10.22;60.21
34586;BME280;20816;50.950;11.108;2024-03-08T10:59:39;98399.41;;;10.25;60.19
34586;BME280;20816;50.950;11.108;2024-03-08T11:02:06;98393.53;;;10.14;59.70
34586;BME280;20816;50.950;11.108;2024-03-08T11:04:33;98386.69;;;10.07;59.75
34586;BME280;20816;50.950;11.108;2024-03-08T11:07:03;98383.16;;;10.08;59.62
34586;BME280;20816;50.950;11.108;2024-03-08T11:09:37;98378.00;;;10.05;59.92
34586;BME280;20816;50.950;11.108;2024-03-08T11:12:25;98374.38;;;10.10;59.54
34586;BME280;20816;50.950;11.108;2024-03-08T11:14:53;98385.19;;;10.34;59.37
34586;BME280;20816;50.950;11.108;2024-03-08T11:17:22;98367.81;;;10.30;59.46
34586;BME280;20816;50.950;11.108;2024-03-08T11:19:55;98373.69;;;10.39;60.04
34586;BME280;20816;50.950;11.108;2024-03-08T11:22:27;98367.03;;;10.60;59.10
34586;BME280;20816;50.950;11.108;2024-03-08T11:24:59;98369.66;;;10.25;60.84
34586;BME280;20816;50.950;11.108;2024-03-08T11:27:30;98358.88;;;10.71;59.03
34586;BME280;20816;50.950;11.108;2024-03-08T11:30:07;98366.91;;;10.98;58.73
34586;BME280;20816;50.950;11.108;2024-03-08T11:32:47;98358.00;;;10.71;58.82
34586;BME280;20816;50.950;11.108;2024-03-08T11:35:19;98353.47;;;10.42;59.82
34586;BME280;20816;50.950;11.108;2024-03-08T11:37:46;98341.72;;;10.56;59.67
34586;BME280;20816;50.950;11.108;2024-03-08T11:40:15;98342.19;;;10.72;58.61
34586;BME280;20816;50.950;11.108;2024-03-08T11:42:46;98328.75;;;11.14;58.13
34586;BME280;20816;50.950;11.108;2024-03-08T11:45:19;98330.31;;;11.21;58.34
34586;BME280;20816;50.950;11.108;2024-03-08T11:47:48;98326.56;;;10.99;58.94
34586;BME280;20816;50.950;11.108;2024-03-08T11:50:16;98325.03;;;10.91;58.42
34586;BME280;20816;50.950;11.108;2024-03-08T11:52:46;98334.16;;;10.78;58.98
34586;BME280;20816;50.950;11.108;2024-03-08T11:55:13;98314.41;;;10.94;58.91
34586;BME280;20816;50.950;11.108;2024-03-08T11:57:40;98314.06;;;10.42;59.76
34586;BME280;20816;50.950;11.108;2024-03-08T12:00:15;98313.38;;;10.69;58.72
34586;BME280;20816;50.950;11.108;2024-03-08T12:03:05;98310.47;;;10.46;59.12
34586;BME280;20816;50.950;11.108;2024-03-08T12:05:33;98310.38;;;10.81;58.38
34586;BME280;20816;50.950;11.108;2024-03-08T12:08:03;98309.06;;;10.98;58.05
34586;BME280;20816;50.950;11.108;2024-03-08T12:10:33;98301.09;;;11.01;58.53
34586;BME280;20816;50.950;11.108;2024-03-08T12:13:01;98295.53;;;10.80;58.76
34586;BME280;20816;50.950;11.108;2024-03-08T12:15:31;98296.13;;;10.90;58.29
34586;BME280;20816;50.950;11.108;2024-03-08T12:18:00;98290.84;;;11.21;58.09
34586;BME280;20816;50.950;11.108;2024-03-08T12:20:28;98280.78;;;11.06;58.63
34586;BME280;20816;50.950;11.108;2024-03-08T12:22:58;98278.88;;;11.11;58.17
34586;BME280;20816;50.950;11.108;2024-03-08T12:25:35;98275.72;;;11.00;58.18
34586;BME280;20816;50.950;11.108;2024-03-08T12:28:10;98273.84;;;10.72;58.99
34586;BME280;20816;50.950;11.108;2024-03-08T12:30:48;98272.50;;;10.88;58.70
34586;BME280;20816;50.950;11.108;2024-03-08T12:33:15;98264.25;;;10.71;58.73
34586;BME280;20816;50.950;11.108;2024-03-08T12:35:50;98262.41;;;10.73;59.14
34586;BME280;20816;50.950;11.108;2024-03-08T12:38:21;98267.75;;;10.39;60.21
34586;BME280;20816;50.950;11.108;2024-03-08T12:40:59;98255.56;;;11.28;58.30
34586;BME280;20816;50.950;11.108;2024-03-08T12:43:27;98250.44;;;11.23;57.69
34586;BME280;20816;50.950;11.108;2024-03-08T12:45:58;98237.03;;;11.33;57.93
34586;BME280;20816;50.950;11.108;2024-03-08T12:48:25;98241.16;;;11.12;58.26
34586;BME280;20816;50.950;11.108;2024-03-08T12:50:51;98250.72;;;10.54;58.86
34586;BME280;20816;50.950;11.108;2024-03-08T12:53:21;98240.50;;;10.42;59.58
34586;BME280;20816;50.950;11.108;2024-03-08T12:55:50;98236.38;;;10.33;60.14
34586;BME280;20816;50.950;11.108;2024-03-08T12:58:17;98229.19;;;10.39;59.86
34586;BME280;20816;50.950;11.108;2024-03-08T13:00:43;98239.91;;;10.32;60.21
34586;BME280;20816;50.950;11.108;2024-03-08T13:03:10;98232.56;;;10.45;59.78
34586;BME280;20816;50.950;11.108;2024-03-08T13:05:38;98220.72;;;10.61;59.33
34586;BME280;20816;50.950;11.108;2024-03-08T13:08:09;98216.13;;;10.69;60.14
34586;BME280;20816;50.950;11.108;2024-03-08T13:10:40;98207.88;;;10.81;60.14
34586;BME280;20816;50.950;11.108;2024-03-08T13:13:06;98216.44;;;10.57;59.26
34586;BME280;20816;50.950;11.108;2024-03-08T13:15:33;98204.88;;;10.64;59.97